Cape Elizabeth, Maine
Current Conditions -  °F | °C
As of 8:51 AM on Monday 20 Oct 2014 (Local Time) from KPWM Reporting Station
Scattered Clouds Scattered Clouds  
Wind Chill: 42°   Ceiling: Unl
Heat Index: 44°   Visibility: 10mi
Dew Point: 28°   Wind: 5mph
Humidity: 53%   Direction: 230°SW
Pressure: 29.99"   Gusts: NA
Location:  43.56°N, 70.2°W
Report Text: KPWM 201251Z 23004KT 10SM FEW050 SCT150 07/M02 A2999 RMK AO2 SLP156 T00671022
Loading
Personal Weather Stations






























Interactive Weather Map
Tropical Storm Tracking
New forecast layout! Learn more

10-Day Weather Forecast

Advertisements
Track Severe Weather on mobile